OMFJ/FJR METAR and TAF weather

Enter ICAO airport designator
Station Type Date Time Source
OMFJ METAR 2019/04/25 18:00 UTC NOAA

OMFJ 251800Z 30015KT CAVOK 24/11 Q1012 A2990


Station Type Date Time Source
OMFJ Decoded METAR 2019/04/25 18:00 UTC NOAA

Fujairah, United Arab Emirates (OMFJ) 25-06N 056-20E 28M
Apr 25, 2019 - 02:00 PM EDT / 2019.04.25 1800 UTC
Wind: from the WNW (300 degrees) at 17 MPH (15 KT):0
Visibility: greater than 7 mile(s):0
Temperature: 75 F (24 C)
Dew Point: 51 F (11 C)
Relative Humidity: 43%
Pressure (altimeter): 29.9 in. Hg (1012 hPa)
ob: OMFJ 251800Z 30015KT CAVOK 24/11 Q1012 A2990
cycle: 18

Station Type Date Time Source
OMFJ TAF 2019/04/25 18:03 UTC NOAA

TAF TAF OMFJ 251700Z 2518/2624 29012KT 8000 NSC PROB30 2518/2604 30016G26KT 5000 BLDU
TEMPO 2606/2614 09008KT

Example: see airport list